Etusivu
METAR-TAF:

METAR-TAF

Lentoasemat :

Vientiane, Laos

Leveyspiiri: 17-57N, Pituuspiiri: 102-34E, korkeus merenpinnasta: 171 m

Tämänhetkinen sää

Tämä raportti tehtiin 36 minuuttia sitten, kello 16.00 UTC
Tuuli 4 kn pohjoisesta
Lämpötila 26°C
Kosteus 89%
Ilmanpaine 1009 hPa
Näkyvyys: 3000 m
Hajanaisia pilviä 4000 ft:n korkeudessa
utua

METAR: VLVT 211600Z 36004KT 3000 BR SCT040 26/24 Q1009 NOSIG

Aika: 23:36 (16:36 UTC)

Sääennuste

Tämä raportti tehtiin 5 tuntia ja 36 minuuttia sitten, kello 11.00 UTC
Ennuste voimassa 21. päivästä klo 12 UTC - 22. päivään klo 12 UTC
Tuuli 6 kn lännestä
Näkyvyys: 7000 m
Hajanaisia pilviä 2000 ft:n korkeudessa
Hajanaisia pilviä 5000 ft:n korkeudessa
Ajoittain
21. päivästä klo 14 UTC - 21. päivään klo 20 UTC
Näkyvyys: 3000 m
Hajanaisia pilviä 2000 ft:n korkeudessa
Hajonneita pilviä 8300 ft:n korkeudessa
heikkoa sadetta

TAF: VLVT 211100Z 2112/2212 27006KT 7000 SCT020 SCT050 TEMPO 2114/2120 3000 -RA SCT020 BKN083

Säähavainnot ja -ennusteet yli 4000 lentoasemalta (METAR- ja TAF-raportit).

Käytössä olevat sääasemat on merkitty karttaan keltaisilla ja punaisilla pisteillä.

Aseta hiiri pisteen päälle nähdäksesi sääaseman nimen.

Klikkaa sitten nähdäksesi säähavainnot ja -ennusteet.

Kartan vaihtaminen: klikkaa mustalla rastilla varustettuja vihreitä pisteitä, niin voit zoomata sisään; viivalla varustettua vihreää pistettä, niin voit zoomata ulos tai vihreitä nuolia, niin pääset viereisille kartoille.


METAR-TAF: